sensor_id;sensor_type;location;lat;lon;timestamp;P1;durP1;ratioP1;P2;durP2;ratioP2
48329;SDS011;34138;51.262;6.818;2024-03-23T00:54:03;19.33;;;4.85;;
48329;SDS011;34138;51.262;6.818;2024-03-23T00:56:29;24.23;;;4.85;;
48329;SDS011;34138;51.262;6.818;2024-03-23T00:58:54;17.63;;;4.80;;
48329;SDS011;34138;51.262;6.818;2024-03-23T01:01:19;20.02;;;4.57;;
48329;SDS011;34138;51.262;6.818;2024-03-23T01:03:44;20.63;;;4.63;;
48329;SDS011;34138;51.262;6.818;2024-03-23T01:06:09;20.80;;;5.10;;
48329;SDS011;34138;51.262;6.818;2024-03-23T01:08:35;19.60;;;5.07;;
48329;SDS011;34138;51.262;6.818;2024-03-23T01:11:00;22.17;;;4.82;;
48329;SDS011;34138;51.262;6.818;2024-03-23T01:13:26;19.48;;;4.47;;
48329;SDS011;34138;51.262;6.818;2024-03-23T01:15:52;23.38;;;5.22;;
48329;SDS011;34138;51.262;6.818;2024-03-23T01:18:18;19.48;;;4.93;;
48329;SDS011;34138;51.262;6.818;2024-03-23T01:20:44;22.40;;;5.55;;
48329;SDS011;34138;51.262;6.818;2024-03-23T01:23:09;25.77;;;5.57;;
48329;SDS011;34138;51.262;6.818;2024-03-23T01:25:34;20.85;;;5.07;;
48329;SDS011;34138;51.262;6.818;2024-03-23T01:28:00;21.73;;;4.97;;
48329;SDS011;34138;51.262;6.818;2024-03-23T01:30:25;16.23;;;4.18;;
48329;SDS011;34138;51.262;6.818;2024-03-23T01:32:50;15.40;;;3.38;;
48329;SDS011;34138;51.262;6.818;2024-03-23T01:35:15;13.43;;;3.10;;
48329;SDS011;34138;51.262;6.818;2024-03-23T01:37:40;15.95;;;3.17;;
48329;SDS011;34138;51.262;6.818;2024-03-23T01:40:06;13.35;;;2.58;;
48329;SDS011;34138;51.262;6.818;2024-03-23T01:42:31;12.32;;;2.83;;
48329;SDS011;34138;51.262;6.818;2024-03-23T01:44:56;16.08;;;3.75;;
48329;SDS011;34138;51.262;6.818;2024-03-23T01:47:21;14.25;;;3.40;;
48329;SDS011;34138;51.262;6.818;2024-03-23T01:49:47;14.43;;;2.95;;
48329;SDS011;34138;51.262;6.818;2024-03-23T01:52:12;12.68;;;3.03;;
48329;SDS011;34138;51.262;6.818;2024-03-23T01:54:37;13.60;;;3.03;;
48329;SDS011;34138;51.262;6.818;2024-03-23T01:57:03;14.27;;;3.13;;
48329;SDS011;34138;51.262;6.818;2024-03-23T01:59:28;10.82;;;2.83;;
48329;SDS011;34138;51.262;6.818;2024-03-23T02:01:53;11.73;;;3.00;;
48329;SDS011;34138;51.262;6.818;2024-03-23T02:04:18;15.27;;;3.08;;
48329;SDS011;34138;51.262;6.818;2024-03-23T02:06:43;12.70;;;3.28;;
48329;SDS011;34138;51.262;6.818;2024-03-23T02:09:09;16.88;;;3.72;;
48329;SDS011;34138;51.262;6.818;2024-03-23T02:11:34;10.88;;;2.75;;
48329;SDS011;34138;51.262;6.818;2024-03-23T02:14:00;11.23;;;2.85;;
48329;SDS011;34138;51.262;6.818;2024-03-23T02:16:25;20.35;;;3.10;;
48329;SDS011;34138;51.262;6.818;2024-03-23T02:18:50;16.38;;;3.05;;
48329;SDS011;34138;51.262;6.818;2024-03-23T02:21:15;14.23;;;2.70;;
48329;SDS011;34138;51.262;6.818;2024-03-23T02:23:41;16.15;;;3.38;;
48329;SDS011;34138;51.262;6.818;2024-03-23T02:26:06;10.13;;;2.80;;
48329;SDS011;34138;51.262;6.818;2024-03-23T02:28:31;12.82;;;2.88;;
48329;SDS011;34138;51.262;6.818;2024-03-23T02:30:56;9.95;;;2.75;;
48329;SDS011;34138;51.262;6.818;2024-03-23T02:33:22;15.95;;;3.70;;
48329;SDS011;34138;51.262;6.818;2024-03-23T02:35:47;14.63;;;3.30;;
48329;SDS011;34138;51.262;6.818;2024-03-23T02:38:12;13.70;;;2.72;;
48329;SDS011;34138;51.262;6.818;2024-03-23T02:40:37;11.75;;;3.08;;
48329;SDS011;34138;51.262;6.818;2024-03-23T02:43:03;12.98;;;3.22;;
48329;SDS011;34138;51.262;6.818;2024-03-23T02:45:28;12.32;;;2.72;;
48329;SDS011;34138;51.262;6.818;2024-03-23T02:47:54;14.10;;;3.50;;
48329;SDS011;34138;51.262;6.818;2024-03-23T02:50:19;14.43;;;3.63;;
48329;SDS011;34138;51.262;6.818;2024-03-23T02:52:44;14.05;;;4.00;;
48329;SDS011;34138;51.262;6.818;2024-03-23T02:55:09;11.50;;;2.80;;
48329;SDS011;34138;51.262;6.818;2024-03-23T02:57:35;10.82;;;2.95;;
48329;SDS011;34138;51.262;6.818;2024-03-23T03:00:00;14.07;;;3.30;;
48329;SDS011;34138;51.262;6.818;2024-03-23T03:02:25;10.88;;;3.00;;
48329;SDS011;34138;51.262;6.818;2024-03-23T03:04:50;12.95;;;3.17;;
48329;SDS011;34138;51.262;6.818;2024-03-23T03:07:16;14.80;;;3.47;;
48329;SDS011;34138;51.262;6.818;2024-03-23T03:09:41;13.68;;;3.63;;
48329;SDS011;34138;51.262;6.818;2024-03-23T03:12:07;15.98;;;3.42;;
48329;SDS011;34138;51.262;6.818;2024-03-23T03:14:33;12.93;;;3.17;;
48329;SDS011;34138;51.262;6.818;2024-03-23T03:17:00;15.68;;;3.40;;
48329;SDS011;34138;51.262;6.818;2024-03-23T03:19:26;13.10;;;2.80;;
48329;SDS011;34138;51.262;6.818;2024-03-23T03:21:51;14.23;;;3.15;;
48329;SDS011;34138;51.262;6.818;2024-03-23T03:24:16;11.18;;;3.00;;
48329;SDS011;34138;51.262;6.818;2024-03-23T03:26:42;12.43;;;3.20;;
48329;SDS011;34138;51.262;6.818;2024-03-23T03:29:08;14.30;;;2.97;;
48329;SDS011;34138;51.262;6.818;2024-03-23T03:31:35;12.18;;;2.85;;
48329;SDS011;34138;51.262;6.818;2024-03-23T03:34:05;14.23;;;3.30;;
48329;SDS011;34138;51.262;6.818;2024-03-23T03:36:31;14.75;;;3.00;;
48329;SDS011;34138;51.262;6.818;2024-03-23T03:38:56;14.70;;;2.85;;
48329;SDS011;34138;51.262;6.818;2024-03-23T03:41:21;16.65;;;2.95;;
48329;SDS011;34138;51.262;6.818;2024-03-23T03:43:46;12.05;;;2.90;;
48329;SDS011;34138;51.262;6.818;2024-03-23T03:46:11;17.25;;;3.03;;
48329;SDS011;34138;51.262;6.818;2024-03-23T03:48:38;12.07;;;3.03;;
48329;SDS011;34138;51.262;6.818;2024-03-23T03:51:03;13.07;;;2.83;;
48329;SDS011;34138;51.262;6.818;2024-03-23T03:53:31;12.60;;;2.83;;
48329;SDS011;34138;51.262;6.818;2024-03-23T03:56:02;13.45;;;2.65;;
48329;SDS011;34138;51.262;6.818;2024-03-23T03:58:28;14.15;;;3.35;;
48329;SDS011;34138;51.262;6.818;2024-03-23T04:00:53;11.88;;;2.15;;
48329;SDS011;34138;51.262;6.818;2024-03-23T04:03:19;10.90;;;2.75;;
48329;SDS011;34138;51.262;6.818;2024-03-23T04:05:49;16.08;;;3.10;;
48329;SDS011;34138;51.262;6.818;2024-03-23T04:08:14;12.98;;;2.42;;
48329;SDS011;34138;51.262;6.818;2024-03-23T04:10:39;17.65;;;3.33;;
48329;SDS011;34138;51.262;6.818;2024-03-23T04:13:05;23.88;;;3.63;;
48329;SDS011;34138;51.262;6.818;2024-03-23T04:15:30;14.50;;;3.53;;
48329;SDS011;34138;51.262;6.818;2024-03-23T04:17:55;10.38;;;2.83;;
48329;SDS011;34138;51.262;6.818;2024-03-23T04:20:21;11.07;;;2.60;;
48329;SDS011;34138;51.262;6.818;2024-03-23T04:22:46;17.25;;;3.22;;
48329;SDS011;34138;51.262;6.818;2024-03-23T04:25:11;13.38;;;2.47;;
48329;SDS011;34138;51.262;6.818;2024-03-23T04:27:36;14.63;;;2.78;;
48329;SDS011;34138;51.262;6.818;2024-03-23T04:30:02;11.45;;;2.40;;
48329;SDS011;34138;51.262;6.818;2024-03-23T04:32:29;15.38;;;3.05;;
48329;SDS011;34138;51.262;6.818;2024-03-23T04:34:54;17.75;;;2.78;;
48329;SDS011;34138;51.262;6.818;2024-03-23T04:37:19;17.52;;;2.92;;
48329;SDS011;34138;51.262;6.818;2024-03-23T04:39:45;17.05;;;2.90;;
48329;SDS011;34138;51.262;6.818;2024-03-23T04:42:10;13.63;;;3.22;;
48329;SDS011;34138;51.262;6.818;2024-03-23T04:44:35;16.95;;;3.17;;
48329;SDS011;34138;51.262;6.818;2024-03-23T04:47:00;16.45;;;3.10;;
48329;SDS011;34138;51.262;6.818;2024-03-23T04:49:26;16.17;;;3.08;;
48329;SDS011;34138;51.262;6.818;2024-03-23T04:51:51;18.33;;;4.13;;
48329;SDS011;34138;51.262;6.818;2024-03-23T04:54:16;17.23;;;3.45;;
48329;SDS011;34138;51.262;6.818;2024-03-23T04:56:42;15.15;;;4.05;;
48329;SDS011;34138;51.262;6.818;2024-03-23T04:59:07;14.55;;;3.60;;
48329;SDS011;34138;51.262;6.818;2024-03-23T05:01:32;15.52;;;3.55;;
48329;SDS011;34138;51.262;6.818;2024-03-23T05:03:57;13.63;;;3.15;;
48329;SDS011;34138;51.262;6.818;2024-03-23T05:06:23;16.27;;;3.65;;
48329;SDS011;34138;51.262;6.818;2024-03-23T05:08:48;23.15;;;4.30;;
48329;SDS011;34138;51.262;6.818;2024-03-23T05:11:14;17.17;;;3.50;;
48329;SDS011;34138;51.262;6.818;2024-03-23T05:13:40;13.32;;;3.60;;
48329;SDS011;34138;51.262;6.818;2024-03-23T05:16:06;14.15;;;3.50;;
48329;SDS011;34138;51.262;6.818;2024-03-23T05:18:31;17.35;;;3.72;;
48329;SDS011;34138;51.262;6.818;2024-03-23T05:20:56;21.75;;;4.22;;
48329;SDS011;34138;51.262;6.818;2024-03-23T05:23:22;18.40;;;3.83;;
48329;SDS011;34138;51.262;6.818;2024-03-23T05:25:47;13.15;;;3.20;;
48329;SDS011;34138;51.262;6.818;2024-03-23T05:28:13;12.52;;;3.13;;
48329;SDS011;34138;51.262;6.818;2024-03-23T05:30:38;15.13;;;3.38;;
48329;SDS011;34138;51.262;6.818;2024-03-23T05:33:03;17.73;;;4.40;;
48329;SDS011;34138;51.262;6.818;2024-03-23T05:35:28;18.30;;;3.45;;
48329;SDS011;34138;51.262;6.818;2024-03-23T05:37:53;15.43;;;4.03;;
48329;SDS011;34138;51.262;6.818;2024-03-23T05:40:19;19.13;;;3.80;;
48329;SDS011;34138;51.262;6.818;2024-03-23T05:42:44;17.58;;;4.28;;
48329;SDS011;34138;51.262;6.818;2024-03-23T05:45:09;16.90;;;3.88;;
48329;SDS011;34138;51.262;6.818;2024-03-23T05:47:36;18.52;;;4.05;;
48329;SDS011;34138;51.262;6.818;2024-03-23T05:50:01;15.18;;;4.75;;
48329;SDS011;34138;51.262;6.818;2024-03-23T05:52:27;16.35;;;4.07;;
48329;SDS011;34138;51.262;6.818;2024-03-23T05:54:52;17.33;;;3.92;;
48329;SDS011;34138;51.262;6.818;2024-03-23T05:57:17;14.70;;;3.63;;
48329;SDS011;34138;51.262;6.818;2024-03-23T05:59:44;21.48;;;5.20;;
48329;SDS011;34138;51.262;6.818;2024-03-23T06:02:09;18.20;;;4.05;;
48329;SDS011;34138;51.262;6.818;2024-03-23T06:04:35;16.00;;;4.05;;
48329;SDS011;34138;51.262;6.818;2024-03-23T06:07:01;14.95;;;3.90;;
48329;SDS011;34138;51.262;6.818;2024-03-23T06:09:26;21.58;;;5.03;;
48329;SDS011;34138;51.262;6.818;2024-03-23T06:11:51;13.98;;;4.10;;
48329;SDS011;34138;51.262;6.818;2024-03-23T06:14:16;17.23;;;3.92;;
48329;SDS011;34138;51.262;6.818;2024-03-23T06:16:41;21.40;;;4.32;;
48329;SDS011;34138;51.262;6.818;2024-03-23T06:19:07;22.77;;;4.45;;
48329;SDS011;34138;51.262;6.818;2024-03-23T06:21:32;19.55;;;5.13;;
48329;SDS011;34138;51.262;6.818;2024-03-23T06:23:58;21.88;;;4.85;;
48329;SDS011;34138;51.262;6.818;2024-03-23T06:26:23;20.25;;;5.10;;
48329;SDS011;34138;51.262;6.818;2024-03-23T06:28:48;19.83;;;5.88;;
48329;SDS011;34138;51.262;6.818;2024-03-23T06:31:14;22.75;;;5.20;;
48329;SDS011;34138;51.262;6.818;2024-03-23T06:33:39;19.05;;;5.25;;
48329;SDS011;34138;51.262;6.818;2024-03-23T06:36:06;18.50;;;5.28;;
48329;SDS011;34138;51.262;6.818;2024-03-23T06:38:31;19.77;;;4.97;;
48329;SDS011;34138;51.262;6.818;2024-03-23T06:40:56;15.65;;;4.60;;
48329;SDS011;34138;51.262;6.818;2024-03-23T06:43:21;23.70;;;5.60;;
48329;SDS011;34138;51.262;6.818;2024-03-23T06:45:53;23.60;;;6.30;;
48329;SDS011;34138;51.262;6.818;2024-03-23T06:48:18;24.33;;;6.93;;
48329;SDS011;34138;51.262;6.818;2024-03-23T06:50:44;20.50;;;5.40;;
48329;SDS011;34138;51.262;6.818;2024-03-23T06:53:09;15.88;;;4.68;;
48329;SDS011;34138;51.262;6.818;2024-03-23T06:55:34;22.02;;;5.88;;
48329;SDS011;34138;51.262;6.818;2024-03-23T06:58:00;22.88;;;5.97;;
48329;SDS011;34138;51.262;6.818;2024-03-23T07:00:25;23.02;;;6.60;;
48329;SDS011;34138;51.262;6.818;2024-03-23T07:02:51;21.58;;;6.63;;
48329;SDS011;34138;51.262;6.818;2024-03-23T07:05:16;24.20;;;6.50;;
48329;SDS011;34138;51.262;6.818;2024-03-23T07:07:41;22.67;;;6.82;;
48329;SDS011;34138;51.262;6.818;2024-03-23T07:10:07;21.55;;;6.38;;
48329;SDS011;34138;51.262;6.818;2024-03-23T07:12:32;22.42;;;6.63;;
48329;SDS011;34138;51.262;6.818;2024-03-23T07:14:57;23.35;;;6.93;;
48329;SDS011;34138;51.262;6.818;2024-03-23T07:17:23;25.40;;;6.88;;
48329;SDS011;34138;51.262;6.818;2024-03-23T07:19:48;24.48;;;7.68;;
48329;SDS011;34138;51.262;6.818;2024-03-23T07:22:13;20.60;;;6.05;;
48329;SDS011;34138;51.262;6.818;2024-03-23T07:24:39;24.38;;;6.95;;
48329;SDS011;34138;51.262;6.818;2024-03-23T07:27:04;25.73;;;7.15;;
48329;SDS011;34138;51.262;6.818;2024-03-23T07:29:30;19.08;;;6.32;;
48329;SDS011;34138;51.262;6.818;2024-03-23T07:31:55;20.60;;;6.53;;
48329;SDS011;34138;51.262;6.818;2024-03-23T07:34:20;19.02;;;6.40;;
48329;SDS011;34138;51.262;6.818;2024-03-23T07:36:46;19.90;;;6.03;;
48329;SDS011;34138;51.262;6.818;2024-03-23T07:39:11;21.27;;;5.85;;
48329;SDS011;34138;51.262;6.818;2024-03-23T07:41:36;20.25;;;5.88;;
48329;SDS011;34138;51.262;6.818;2024-03-23T07:44:01;18.63;;;5.88;;
48329;SDS011;34138;51.262;6.818;2024-03-23T07:46:27;19.85;;;5.78;;
48329;SDS011;34138;51.262;6.818;2024-03-23T07:48:52;18.10;;;6.07;;
48329;SDS011;34138;51.262;6.818;2024-03-23T07:51:19;19.98;;;5.95;;
48329;SDS011;34138;51.262;6.818;2024-03-23T07:53:45;21.65;;;5.43;;
48329;SDS011;34138;51.262;6.818;2024-03-23T07:56:13;18.20;;;5.40;;
48329;SDS011;34138;51.262;6.818;2024-03-23T07:58:40;20.08;;;5.63;;
48329;SDS011;34138;51.262;6.818;2024-03-23T08:01:06;17.40;;;5.60;;
48329;SDS011;34138;51.262;6.818;2024-03-23T08:03:37;14.80;;;5.13;;
48329;SDS011;34138;51.262;6.818;2024-03-23T08:06:06;22.40;;;6.43;;
48329;SDS011;34138;51.262;6.818;2024-03-23T08:08:31;22.98;;;5.70;;
48329;SDS011;34138;51.262;6.818;2024-03-23T08:10:57;19.55;;;5.05;;
48329;SDS011;34138;51.262;6.818;2024-03-23T08:13:22;14.27;;;5.35;;
48329;SDS011;34138;51.262;6.818;2024-03-23T08:15:47;18.55;;;5.03;;
48329;SDS011;34138;51.262;6.818;2024-03-23T08:18:12;13.98;;;4.93;;
48329;SDS011;34138;51.262;6.818;2024-03-23T08:20:38;18.77;;;5.38;;
48329;SDS011;34138;51.262;6.818;2024-03-23T08:23:04;16.98;;;5.60;;
48329;SDS011;34138;51.262;6.818;2024-03-23T08:25:33;21.50;;;5.30;;
48329;SDS011;34138;51.262;6.818;2024-03-23T08:27:58;20.15;;;4.80;;
48329;SDS011;34138;51.262;6.818;2024-03-23T08:30:24;19.10;;;4.20;;
48329;SDS011;34138;51.262;6.818;2024-03-23T08:32:49;21.88;;;5.22;;
48329;SDS011;34138;51.262;6.818;2024-03-23T08:35:14;23.42;;;5.32;;
48329;SDS011;34138;51.262;6.818;2024-03-23T08:37:39;16.52;;;4.25;;
48329;SDS011;34138;51.262;6.818;2024-03-23T08:40:05;15.95;;;4.07;;
48329;SDS011;34138;51.262;6.818;2024-03-23T08:42:30;16.30;;;4.20;;
48329;SDS011;34138;51.262;6.818;2024-03-23T08:44:55;17.25;;;4.32;;
48329;SDS011;34138;51.262;6.818;2024-03-23T08:47:21;17.73;;;4.68;;
48329;SDS011;34138;51.262;6.818;2024-03-23T08:49:46;16.48;;;4.22;;
48329;SDS011;34138;51.262;6.818;2024-03-23T08:52:11;20.77;;;3.97;;
48329;SDS011;34138;51.262;6.818;2024-03-23T08:54:36;19.65;;;4.40;;
48329;SDS011;34138;51.262;6.818;2024-03-23T08:57:01;13.57;;;3.45;;
48329;SDS011;34138;51.262;6.818;2024-03-23T08:59:27;7.78;;;2.00;;
48329;SDS011;34138;51.262;6.818;2024-03-23T09:01:52;7.40;;;1.70;;
48329;SDS011;34138;51.262;6.818;2024-03-23T09:04:18;6.60;;;2.25;;
48329;SDS011;34138;51.262;6.818;2024-03-23T09:06:43;9.27;;;2.42;;
48329;SDS011;34138;51.262;6.818;2024-03-23T09:09:08;9.38;;;2.38;;
48329;SDS011;34138;51.262;6.818;2024-03-23T09:11:33;13.00;;;2.75;;
48329;SDS011;34138;51.262;6.818;2024-03-23T09:13:58;9.88;;;2.33;;
48329;SDS011;34138;51.262;6.818;2024-03-23T09:16:24;10.93;;;2.53;;
48329;SDS011;34138;51.262;6.818;2024-03-23T09:18:49;6.63;;;2.15;;
48329;SDS011;34138;51.262;6.818;2024-03-23T09:21:14;8.82;;;2.80;;
48329;SDS011;34138;51.262;6.818;2024-03-23T09:23:40;9.98;;;3.15;;
48329;SDS011;34138;51.262;6.818;2024-03-23T09:26:05;12.57;;;3.17;;
48329;SDS011;34138;51.262;6.818;2024-03-23T09:28:32;12.70;;;3.33;;
48329;SDS011;34138;51.262;6.818;2024-03-23T09:33:29;14.80;;;3.40;;
48329;SDS011;34138;51.262;6.818;2024-03-23T09:35:54;16.40;;;3.08;;
48329;SDS011;34138;51.262;6.818;2024-03-23T09:38:20;18.67;;;3.47;;
48329;SDS011;34138;51.262;6.818;2024-03-23T09:40:45;15.73;;;3.45;;
48329;SDS011;34138;51.262;6.818;2024-03-23T09:43:13;14.02;;;3.33;;
48329;SDS011;34138;51.262;6.818;2024-03-23T09:45:38;14.18;;;3.50;;
48329;SDS011;34138;51.262;6.818;2024-03-23T09:48:04;9.25;;;2.78;;
48329;SDS011;34138;51.262;6.818;2024-03-23T09:50:30;14.25;;;3.25;;
48329;SDS011;34138;51.262;6.818;2024-03-23T09:52:56;15.38;;;3.38;;
48329;SDS011;34138;51.262;6.818;2024-03-23T09:55:21;18.88;;;4.22;;
48329;SDS011;34138;51.262;6.818;2024-03-23T09:57:46;11.02;;;3.05;;
48329;SDS011;34138;51.262;6.818;2024-03-23T10:00:11;14.50;;;3.08;;
48329;SDS011;34138;51.262;6.818;2024-03-23T10:02:37;17.85;;;3.40;;
48329;SDS011;34138;51.262;6.818;2024-03-23T10:05:02;15.82;;;3.63;;
48329;SDS011;34138;51.262;6.818;2024-03-23T10:07:27;11.55;;;3.70;;
48329;SDS011;34138;51.262;6.818;2024-03-23T10:09:56;17.30;;;4.40;;
48329;SDS011;34138;51.262;6.818;2024-03-23T10:12:22;14.48;;;3.28;;
48329;SDS011;34138;51.262;6.818;2024-03-23T10:14:48;11.15;;;2.53;;
48329;SDS011;34138;51.262;6.818;2024-03-23T10:17:15;14.90;;;3.50;;
48329;SDS011;34138;51.262;6.818;2024-03-23T10:19:42;10.00;;;2.67;;
48329;SDS011;34138;51.262;6.818;2024-03-23T10:22:14;11.00;;;2.88;;
48329;SDS011;34138;51.262;6.818;2024-03-23T10:24:39;13.98;;;3.15;;
48329;SDS011;34138;51.262;6.818;2024-03-23T10:27:05;13.57;;;3.22;;
48329;SDS011;34138;51.262;6.818;2024-03-23T10:29:30;9.45;;;2.60;;
48329;SDS011;34138;51.262;6.818;2024-03-23T10:32:07;7.90;;;2.42;;
48329;SDS011;34138;51.262;6.818;2024-03-23T10:34:32;7.75;;;2.00;;
48329;SDS011;34138;51.262;6.818;2024-03-23T10:36:57;9.40;;;2.35;;
48329;SDS011;34138;51.262;6.818;2024-03-23T10:39:23;9.60;;;2.10;;
48329;SDS011;34138;51.262;6.818;2024-03-23T10:41:52;7.47;;;2.05;;
48329;SDS011;34138;51.262;6.818;2024-03-23T10:44:18;8.98;;;2.00;;
48329;SDS011;34138;51.262;6.818;2024-03-23T10:46:44;9.25;;;2.20;;
48329;SDS011;34138;51.262;6.818;2024-03-23T10:49:09;9.13;;;2.45;;
48329;SDS011;34138;51.262;6.818;2024-03-23T10:51:35;9.25;;;2.35;;
48329;SDS011;34138;51.262;6.818;2024-03-23T10:54:00;11.05;;;1.80;;
48329;SDS011;34138;51.262;6.818;2024-03-23T10:56:29;6.32;;;1.55;;
48329;SDS011;34138;51.262;6.818;2024-03-23T10:58:58;4.95;;;1.58;;
48329;SDS011;34138;51.262;6.818;2024-03-23T11:01:25;5.47;;;1.88;;
48329;SDS011;34138;51.262;6.818;2024-03-23T11:03:50;6.28;;;1.63;;
48329;SDS011;34138;51.262;6.818;2024-03-23T11:06:36;4.97;;;1.13;;
48329;SDS011;34138;51.262;6.818;2024-03-23T11:09:01;3.80;;;1.10;;
48329;SDS011;34138;51.262;6.818;2024-03-23T11:11:26;5.13;;;1.42;;
48329;SDS011;34138;51.262;6.818;2024-03-23T11:13:53;4.43;;;1.13;;
48329;SDS011;34138;51.262;6.818;2024-03-23T11:16:22;10.13;;;3.92;;
48329;SDS011;34138;51.262;6.818;2024-03-23T11:18:53;5.60;;;2.30;;
48329;SDS011;34138;51.262;6.818;2024-03-23T11:24:14;3.10;;;1.27;;
48329;SDS011;34138;51.262;6.818;2024-03-23T11:26:40;6.35;;;1.30;;
48329;SDS011;34138;51.262;6.818;2024-03-23T11:29:08;7.13;;;1.20;;
48329;SDS011;34138;51.262;6.818;2024-03-23T11:31:34;7.13;;;1.20;;
48329;SDS011;34138;51.262;6.818;2024-03-23T11:34:04;7.30;;;1.30;;
48329;SDS011;34138;51.262;6.818;2024-03-23T11:36:30;5.63;;;1.42;;
48329;SDS011;34138;51.262;6.818;2024-03-23T11:38:55;4.35;;;1.10;;
48329;SDS011;34138;51.262;6.818;2024-03-23T11:41:20;4.93;;;1.40;;
48329;SDS011;34138;51.262;6.818;2024-03-23T11:43:45;7.13;;;1.50;;
48329;SDS011;34138;51.262;6.818;2024-03-23T11:46:10;5.65;;;1.77;;
48329;SDS011;34138;51.262;6.818;2024-03-23T11:48:36;5.80;;;1.85;;
48329;SDS011;34138;51.262;6.818;2024-03-23T11:51:01;10.35;;;3.35;;
48329;SDS011;34138;51.262;6.818;2024-03-23T11:53:26;11.80;;;4.50;;
48329;SDS011;34138;51.262;6.818;2024-03-23T11:55:58;10.00;;;2.42;;
48329;SDS011;34138;51.262;6.818;2024-03-23T11:58:25;6.93;;;1.60;;
48329;SDS011;34138;51.262;6.818;2024-03-23T12:03:17;4.05;;;1.05;;
48329;SDS011;34138;51.262;6.818;2024-03-23T12:05:46;3.75;;;1.15;;
48329;SDS011;34138;51.262;6.818;2024-03-23T12:08:15;6.07;;;1.40;;
48329;SDS011;34138;51.262;6.818;2024-03-23T12:10:40;3.08;;;1.13;;
48329;SDS011;34138;51.262;6.818;2024-03-23T12:13:05;5.80;;;1.15;;
48329;SDS011;34138;51.262;6.818;2024-03-23T12:15:31;3.38;;;1.25;;
48329;SDS011;34138;51.262;6.818;2024-03-23T12:18:06;7.80;;;1.20;;
48329;SDS011;34138;51.262;6.818;2024-03-23T12:20:31;4.22;;;1.38;;
48329;SDS011;34138;51.262;6.818;2024-03-23T12:23:06;4.28;;;1.30;;
48329;SDS011;34138;51.262;6.818;2024-03-23T12:25:31;5.03;;;0.90;;
48329;SDS011;34138;51.262;6.818;2024-03-23T12:27:58;4.32;;;0.90;;
48329;SDS011;34138;51.262;6.818;2024-03-23T12:30:23;5.22;;;1.40;;
48329;SDS011;34138;51.262;6.818;2024-03-23T12:32:49;7.55;;;1.40;;
48329;SDS011;34138;51.262;6.818;2024-03-23T12:35:14;6.18;;;1.50;;
48329;SDS011;34138;51.262;6.818;2024-03-23T12:37:39;7.28;;;1.70;;
48329;SDS011;34138;51.262;6.818;2024-03-23T12:40:05;6.72;;;1.70;;
48329;SDS011;34138;51.262;6.818;2024-03-23T12:42:30;7.18;;;1.90;;
48329;SDS011;34138;51.262;6.818;2024-03-23T12:44:55;7.32;;;1.95;;
48329;SDS011;34138;51.262;6.818;2024-03-23T12:47:20;4.90;;;1.50;;
48329;SDS011;34138;51.262;6.818;2024-03-23T12:49:45;6.65;;;1.48;;
48329;SDS011;34138;51.262;6.818;2024-03-23T12:52:11;7.68;;;1.48;;
48329;SDS011;34138;51.262;6.818;2024-03-23T12:54:37;6.22;;;1.60;;
48329;SDS011;34138;51.262;6.818;2024-03-23T12:57:03;5.88;;;1.65;;
48329;SDS011;34138;51.262;6.818;2024-03-23T12:59:28;6.43;;;1.50;;
48329;SDS011;34138;51.262;6.818;2024-03-23T13:01:53;5.18;;;1.30;;
48329;SDS011;34138;51.262;6.818;2024-03-23T13:04:20;4.35;;;1.40;;
48329;SDS011;34138;51.262;6.818;2024-03-23T13:06:45;5.78;;;1.30;;
48329;SDS011;34138;51.262;6.818;2024-03-23T13:09:10;5.22;;;1.30;;
48329;SDS011;34138;51.262;6.818;2024-03-23T13:11:36;4.03;;;1.50;;
48329;SDS011;34138;51.262;6.818;2024-03-23T13:14:01;5.45;;;1.20;;
48329;SDS011;34138;51.262;6.818;2024-03-23T13:16:26;5.07;;;1.35;;
48329;SDS011;34138;51.262;6.818;2024-03-23T13:18:51;3.55;;;0.93;;
48329;SDS011;34138;51.262;6.818;2024-03-23T13:21:16;7.30;;;1.75;;
48329;SDS011;34138;51.262;6.818;2024-03-23T13:23:42;3.35;;;0.95;;
48329;SDS011;34138;51.262;6.818;2024-03-23T13:26:08;5.25;;;1.10;;
48329;SDS011;34138;51.262;6.818;2024-03-23T13:28:34;4.40;;;1.20;;
48329;SDS011;34138;51.262;6.818;2024-03-23T13:31:00;5.53;;;1.35;;
48329;SDS011;34138;51.262;6.818;2024-03-23T13:33:28;5.25;;;1.17;;
48329;SDS011;34138;51.262;6.818;2024-03-23T13:35:54;4.82;;;1.00;;
48329;SDS011;34138;51.262;6.818;2024-03-23T13:38:20;6.75;;;1.23;;
48329;SDS011;34138;51.262;6.818;2024-03-23T13:40:55;5.88;;;1.50;;
48329;SDS011;34138;51.262;6.818;2024-03-23T13:43:23;5.95;;;1.70;;
48329;SDS011;34138;51.262;6.818;2024-03-23T13:45:58;4.60;;;1.33;;
48329;SDS011;34138;51.262;6.818;2024-03-23T13:48:25;3.40;;;0.95;;
48329;SDS011;34138;51.262;6.818;2024-03-23T13:50:59;5.30;;;1.45;;
48329;SDS011;34138;51.262;6.818;2024-03-23T13:53:25;3.58;;;1.27;;
48329;SDS011;34138;51.262;6.818;2024-03-23T13:55:50;4.20;;;0.98;;
48329;SDS011;34138;51.262;6.818;2024-03-23T13:58:15;3.80;;;1.33;;
48329;SDS011;34138;51.262;6.818;2024-03-23T14:00:41;5.50;;;1.48;;
48329;SDS011;34138;51.262;6.818;2024-03-23T14:03:08;5.25;;;1.40;;
48329;SDS011;34138;51.262;6.818;2024-03-23T14:05:33;4.32;;;1.20;;
48329;SDS011;34138;51.262;6.818;2024-03-23T14:07:58;4.65;;;1.30;;
48329;SDS011;34138;51.262;6.818;2024-03-23T14:10:23;4.60;;;1.73;;
48329;SDS011;34138;51.262;6.818;2024-03-23T14:12:48;5.28;;;1.45;;
48329;SDS011;34138;51.262;6.818;2024-03-23T14:15:14;5.28;;;1.30;;
48329;SDS011;34138;51.262;6.818;2024-03-23T14:17:39;5.95;;;1.80;;
48329;SDS011;34138;51.262;6.818;2024-03-23T14:20:04;4.68;;;1.40;;
48329;SDS011;34138;51.262;6.818;2024-03-23T14:22:30;6.07;;;2.25;;
48329;SDS011;34138;51.262;6.818;2024-03-23T14:24:55;6.32;;;1.42;;
48329;SDS011;34138;51.262;6.818;2024-03-23T14:27:21;6.22;;;2.35;;
48329;SDS011;34138;51.262;6.818;2024-03-23T14:29:49;14.10;;;5.95;;
48329;SDS011;34138;51.262;6.818;2024-03-23T14:32:14;8.10;;;2.17;;
48329;SDS011;34138;51.262;6.818;2024-03-23T14:34:40;6.30;;;1.92;;
48329;SDS011;34138;51.262;6.818;2024-03-23T14:37:05;6.50;;;2.25;;
48329;SDS011;34138;51.262;6.818;2024-03-23T14:39:31;5.82;;;2.20;;
48329;SDS011;34138;51.262;6.818;2024-03-23T14:41:56;4.20;;;1.40;;
48329;SDS011;34138;51.262;6.818;2024-03-23T14:44:22;14.32;;;6.82;;
48329;SDS011;34138;51.262;6.818;2024-03-23T14:46:47;7.13;;;3.10;;
48329;SDS011;34138;51.262;6.818;2024-03-23T14:49:16;14.43;;;6.00;;
48329;SDS011;34138;51.262;6.818;2024-03-23T14:51:44;11.73;;;5.90;;
48329;SDS011;34138;51.262;6.818;2024-03-23T14:54:10;5.15;;;1.70;;
48329;SDS011;34138;51.262;6.818;2024-03-23T14:56:36;12.27;;;4.22;;
48329;SDS011;34138;51.262;6.818;2024-03-23T14:59:02;7.22;;;2.65;;
48329;SDS011;34138;51.262;6.818;2024-03-23T15:01:28;9.20;;;1.98;;
48329;SDS011;34138;51.262;6.818;2024-03-23T15:03:53;10.63;;;4.05;;
48329;SDS011;34138;51.262;6.818;2024-03-23T15:06:18;4.28;;;1.60;;
48329;SDS011;34138;51.262;6.818;2024-03-23T15:08:44;10.88;;;4.75;;
48329;SDS011;34138;51.262;6.818;2024-03-23T15:11:09;5.40;;;2.80;;
48329;SDS011;34138;51.262;6.818;2024-03-23T15:13:35;8.27;;;2.92;;
48329;SDS011;34138;51.262;6.818;2024-03-23T15:16:00;11.07;;;3.65;;
48329;SDS011;34138;51.262;6.818;2024-03-23T15:18:25;6.03;;;2.00;;
48329;SDS011;34138;51.262;6.818;2024-03-23T15:20:51;5.97;;;2.08;;
48329;SDS011;34138;51.262;6.818;2024-03-23T15:23:16;7.80;;;3.58;;
48329;SDS011;34138;51.262;6.818;2024-03-23T15:25:42;6.35;;;1.50;;
48329;SDS011;34138;51.262;6.818;2024-03-23T15:28:07;5.18;;;1.30;;
48329;SDS011;34138;51.262;6.818;2024-03-23T15:30:32;3.28;;;1.05;;